Time;durP1;ratioP1;P1;durP2;ratioP2;P2;SDS_P1;SDS_P2;PMS_P1;PMS_P2;Temp;Humidity;BMP_temperature;BMP_pressure;BME280_temperature;BME280_humidity;BME280_pressure;Samples;Min_cycle;Max_cycle;Signal;HPM_P1;HPM_P2
2023/07/23 00:01:18;;;;;;;5.40;3.50;;;;;;;;;;108251;1272;38805;-38
2023/07/23 00:03:53;;;;;;;5.10;3.40;;;;;;;;;;108253;1260;45303;-38
2023/07/23 00:06:27;;;;;;;4.80;3.30;;;;;;;;;;108303;1257;42440;-37
2023/07/23 00:09:02;;;;;;;5.50;3.50;;;;;;;;;;108277;1269;40910;-37
2023/07/23 00:11:36;;;;;;;5.50;3.70;;;;;;;;;;108291;1272;38614;-37
2023/07/23 00:14:11;;;;;;;4.90;3.20;;;;;;;;;;108186;1261;45812;-37
2023/07/23 00:16:47;;;;;;;5.40;3.00;;;;;;;;;;108247;1260;41710;-38
2023/07/23 00:19:21;;;;;;;5.00;3.50;;;;;;;;;;108211;1260;40850;-38
2023/07/23 00:21:56;;;;;;;4.70;3.00;;;;;;;;;;108239;1260;38665;-37
2023/07/23 00:24:30;;;;;;;5.10;3.30;;;;;;;;;;108248;1260;45923;-37
2023/07/23 00:27:06;;;;;;;5.60;3.40;;;;;;;;;;108272;1271;41912;-37
2023/07/23 00:29:41;;;;;;;5.00;3.50;;;;;;;;;;108264;1272;42289;-37
2023/07/23 00:32:15;;;;;;;4.60;3.40;;;;;;;;;;108283;1271;38854;-37
2023/07/23 00:34:49;;;;;;;4.70;3.20;;;;;;;;;;108196;1261;45994;-37
2023/07/23 00:37:26;;;;;;;4.90;3.40;;;;;;;;;;108270;1256;43411;-37
2023/07/23 00:40:02;;;;;;;4.90;3.30;;;;;;;;;;108230;1272;40942;-37
2023/07/23 00:42:37;;;;;;;5.10;3.30;;;;;;;;;;108244;1264;38594;-37
2023/07/23 00:45:12;;;;;;;4.80;3.40;;;;;;;;;;108280;1272;40158;-37
2023/07/23 00:47:46;;;;;;;4.80;3.60;;;;;;;;;;108312;1271;42760;-37
2023/07/23 00:50:21;;;;;;;5.20;3.50;;;;;;;;;;108277;1257;40903;-38
2023/07/23 00:52:55;;;;;;;5.50;3.50;;;;;;;;;;108146;1260;175036;-37
2023/07/23 00:55:30;;;;;;;4.80;3.40;;;;;;;;;;108237;1272;46361;-37
2023/07/23 00:58:08;;;;;;;5.30;3.50;;;;;;;;;;108126;1261;175516;-37
2023/07/23 01:00:43;;;;;;;5.20;3.50;;;;;;;;;;108221;1256;41299;-37
2023/07/23 01:03:17;;;;;;;5.70;3.50;;;;;;;;;;108242;1260;38837;-37
2023/07/23 01:05:52;;;;;;;5.00;3.40;;;;;;;;;;107651;1261;893945;-37
2023/07/23 01:08:30;;;;;;;5.10;3.50;;;;;;;;;;108271;1260;41706;-37
2023/07/23 01:11:05;;;;;;;5.50;3.70;;;;;;;;;;108292;1260;40892;-37
2023/07/23 01:13:41;;;;;;;5.30;3.40;;;;;;;;;;108257;1257;38838;-37
2023/07/23 01:16:16;;;;;;;4.80;3.20;;;;;;;;;;108261;1272;40391;-37
2023/07/23 01:18:51;;;;;;;5.50;3.40;;;;;;;;;;108276;1262;41979;-37
2023/07/23 01:21:27;;;;;;;5.10;3.10;;;;;;;;;;108255;1272;41128;-38
2023/07/23 01:24:02;;;;;;;4.50;3.20;;;;;;;;;;108174;1257;38982;-38
2023/07/23 01:26:37;;;;;;;5.40;3.60;;;;;;;;;;108283;1264;39839;-37
2023/07/23 01:29:11;;;;;;;5.20;3.30;;;;;;;;;;108279;1257;42086;-38
2023/07/23 01:31:45;;;;;;;5.70;3.70;;;;;;;;;;108293;1271;40927;-37
2023/07/23 01:34:21;;;;;;;5.70;3.40;;;;;;;;;;108263;1272;38624;-38
2023/07/23 01:36:57;;;;;;;5.00;3.40;;;;;;;;;;108301;1272;40192;-38
2023/07/23 01:39:33;;;;;;;4.90;3.40;;;;;;;;;;108291;1259;42104;-38
2023/07/23 01:42:11;;;;;;;4.90;3.10;;;;;;;;;;108252;1271;41491;-38
2023/07/23 01:44:48;;;;;;;4.90;3.40;;;;;;;;;;108251;1257;38638;-38
2023/07/23 01:47:23;;;;;;;5.90;3.40;;;;;;;;;;108305;1269;40191;-38
2023/07/23 01:49:57;;;;;;;5.00;3.40;;;;;;;;;;108288;1272;41835;-37
2023/07/23 01:52:34;;;;;;;5.70;3.50;;;;;;;;;;108240;1271;41140;-37
2023/07/23 01:55:10;;;;;;;5.60;3.50;;;;;;;;;;108224;1258;38972;-38
2023/07/23 01:57:44;;;;;;;5.10;3.50;;;;;;;;;;108270;1261;40078;-38
2023/07/23 02:00:19;;;;;;;4.80;3.30;;;;;;;;;;108256;1272;41915;-37
2023/07/23 02:02:54;;;;;;;5.30;3.70;;;;;;;;;;108307;1272;41425;-37
2023/07/23 02:05:29;;;;;;;5.10;3.60;;;;;;;;;;108218;1260;38870;-38
2023/07/23 02:08:04;;;;;;;5.30;3.50;;;;;;;;;;108298;1261;40531;-37
2023/07/23 02:10:38;;;;;;;5.30;3.70;;;;;;;;;;108289;1257;42083;-37
2023/07/23 02:13:12;;;;;;;5.00;3.60;;;;;;;;;;108295;1257;41237;-37
2023/07/23 02:15:47;;;;;;;6.20;3.30;;;;;;;;;;108150;1258;191907;-37
2023/07/23 02:18:21;;;;;;;5.60;3.40;;;;;;;;;;108260;1259;40301;-38
2023/07/23 02:20:55;;;;;;;5.70;3.60;;;;;;;;;;108243;1272;43213;-37
2023/07/23 02:23:30;;;;;;;5.60;3.70;;;;;;;;;;108287;1256;42729;-38
2023/07/23 02:26:04;;;;;;;5.70;3.70;;;;;;;;;;108286;1272;39971;-38
2023/07/23 02:28:42;;;;;;;6.10;3.60;;;;;;;;;;108295;1262;40035;-37
2023/07/23 02:31:16;;;;;;;5.10;3.70;;;;;;;;;;108272;1262;43261;-37
2023/07/23 02:33:50;;;;;;;5.10;3.40;;;;;;;;;;108294;1261;40934;-37
2023/07/23 02:36:25;;;;;;;5.10;3.40;;;;;;;;;;108240;1261;39964;-37
2023/07/23 02:38:59;;;;;;;5.00;3.20;;;;;;;;;;108259;1272;40276;-38
2023/07/23 02:41:34;;;;;;;5.90;3.70;;;;;;;;;;108258;1262;42210;-37
2023/07/23 02:44:12;;;;;;;5.80;3.70;;;;;;;;;;108226;1256;41498;-37
2023/07/23 02:46:46;;;;;;;6.70;3.60;;;;;;;;;;108262;1257;38629;-37
2023/07/23 02:49:20;;;;;;;4.90;3.40;;;;;;;;;;108236;1273;39873;-38
2023/07/23 02:51:55;;;;;;;5.30;3.50;;;;;;;;;;108284;1261;41722;-38
2023/07/23 02:54:28;;;;;;;5.40;3.50;;;;;;;;;;108287;1267;41150;-38
2023/07/23 02:57:03;;;;;;;6.00;3.50;;;;;;;;;;108202;1261;38869;-37
2023/07/23 02:59:37;;;;;;;5.90;3.60;;;;;;;;;;108270;1272;40548;-38
2023/07/23 03:02:15;;;;;;;4.90;3.40;;;;;;;;;;108257;1272;41811;-38
2023/07/23 03:04:49;;;;;;;5.30;3.50;;;;;;;;;;108280;1272;40991;-38
2023/07/23 03:07:24;;;;;;;4.90;3.50;;;;;;;;;;108240;1262;38870;-37
2023/07/23 03:09:58;;;;;;;5.80;3.50;;;;;;;;;;108315;1261;40214;-37
2023/07/23 03:12:34;;;;;;;5.40;3.70;;;;;;;;;;108277;1260;41822;-37
2023/07/23 03:15:10;;;;;;;5.70;3.90;;;;;;;;;;108293;1262;41118;-37
2023/07/23 03:17:45;;;;;;;4.90;3.50;;;;;;;;;;108242;1261;38638;-38
2023/07/23 03:20:20;;;;;;;5.00;3.70;;;;;;;;;;108287;1259;40196;-38
2023/07/23 03:22:55;;;;;;;5.50;3.70;;;;;;;;;;108087;1272;42222;-38
2023/07/23 03:25:29;;;;;;;5.10;3.20;;;;;;;;;;108250;1272;40950;-37
2023/07/23 03:28:03;;;;;;;4.90;3.20;;;;;;;;;;108060;1260;38691;-37
2023/07/23 03:30:38;;;;;;;4.70;3.30;;;;;;;;;;108315;1261;40293;-38
2023/07/23 03:33:12;;;;;;;5.10;3.40;;;;;;;;;;108306;1260;42183;-38
2023/07/23 03:35:46;;;;;;;5.00;3.40;;;;;;;;;;108162;1272;175527;-38
2023/07/23 03:38:20;;;;;;;4.60;3.20;;;;;;;;;;108336;1260;38840;-38
2023/07/23 03:40:55;;;;;;;5.20;3.40;;;;;;;;;;108408;1260;40330;-38
2023/07/23 03:43:31;;;;;;;4.90;3.40;;;;;;;;;;108365;1256;42303;-39
2023/07/23 03:46:05;;;;;;;5.10;3.60;;;;;;;;;;108355;1268;41156;-35
2023/07/23 03:48:39;;;;;;;5.40;3.70;;;;;;;;;;108241;1262;38905;-35
2023/07/23 03:51:14;;;;;;;5.30;3.60;;;;;;;;;;108285;1269;40242;-35
2023/07/23 03:53:48;;;;;;;5.70;3.90;;;;;;;;;;108271;1256;42177;-35
2023/07/23 03:56:23;;;;;;;5.20;3.40;;;;;;;;;;108031;1263;42616;-35
2023/07/23 03:58:57;;;;;;;6.40;3.70;;;;;;;;;;108256;1259;38616;-35
2023/07/23 04:01:31;;;;;;;5.50;3.80;;;;;;;;;;108357;1261;40869;-35
2023/07/23 04:04:06;;;;;;;5.10;3.60;;;;;;;;;;108364;1257;41951;-35
2023/07/23 04:06:40;;;;;;;5.30;3.90;;;;;;;;;;108359;1261;41018;-37
2023/07/23 04:09:14;;;;;;;5.20;3.70;;;;;;;;;;108228;1259;38678;-38
2023/07/23 04:11:49;;;;;;;5.90;3.80;;;;;;;;;;108277;1256;39900;-38
2023/07/23 04:14:23;;;;;;;5.20;3.60;;;;;;;;;;108253;1261;41921;-38
2023/07/23 04:16:58;;;;;;;6.00;3.90;;;;;;;;;;108233;1272;40945;-38
2023/07/23 04:19:33;;;;;;;6.20;4.10;;;;;;;;;;108308;1259;44584;-38
2023/07/23 04:22:08;;;;;;;5.30;3.80;;;;;;;;;;108346;1267;40084;-38
2023/07/23 04:24:42;;;;;;;5.50;3.90;;;;;;;;;;108320;1273;42220;-37
2023/07/23 04:27:16;;;;;;;5.80;4.00;;;;;;;;;;108353;1272;41138;-37
2023/07/23 04:29:51;;;;;;;5.60;3.70;;;;;;;;;;108212;1261;44728;-38
2023/07/23 04:32:26;;;;;;;5.90;4.10;;;;;;;;;;108252;1261;39861;-38
2023/07/23 04:35:01;;;;;;;5.30;4.00;;;;;;;;;;108297;1268;41961;-37
2023/07/23 04:37:35;;;;;;;5.90;4.10;;;;;;;;;;108269;1261;41019;-37
2023/07/23 04:40:12;;;;;;;5.40;4.00;;;;;;;;;;108329;1259;46058;-38
2023/07/23 04:42:46;;;;;;;5.90;4.10;;;;;;;;;;108346;1272;39965;-38
2023/07/23 04:45:20;;;;;;;5.80;4.20;;;;;;;;;;108342;1267;42079;-38
2023/07/23 04:47:55;;;;;;;5.70;4.10;;;;;;;;;;108344;1266;42263;-38
2023/07/23 04:50:28;;;;;;;6.10;4.40;;;;;;;;;;108205;1270;45642;-38
2023/07/23 04:53:03;;;;;;;5.50;4.10;;;;;;;;;;108088;1264;41375;-38
2023/07/23 04:55:40;;;;;;;5.70;4.20;;;;;;;;;;108129;1259;42027;-37
2023/07/23 04:58:14;;;;;;;6.20;3.90;;;;;;;;;;108117;1267;41163;-37
2023/07/23 05:00:51;;;;;;;7.40;4.40;;;;;;;;;;108501;1257;44590;-37
2023/07/23 05:03:25;;;;;;;5.90;4.00;;;;;;;;;;108363;1271;39881;-38
2023/07/23 05:06:06;;;;;;;5.90;4.10;;;;;;;;;;108341;1266;43094;-38
2023/07/23 05:08:42;;;;;;;5.20;3.70;;;;;;;;;;108343;1259;41197;-38
2023/07/23 05:11:16;;;;;;;5.10;3.60;;;;;;;;;;108158;1268;175546;-38
2023/07/23 05:13:50;;;;;;;5.70;3.90;;;;;;;;;;107617;1256;895248;-38
2023/07/23 05:16:23;;;;;;;5.90;4.00;;;;;;;;;;108273;1271;42428;-38
2023/07/23 05:18:58;;;;;;;5.70;3.80;;;;;;;;;;108209;1269;41168;-38
2023/07/23 05:21:34;;;;;;;5.50;4.10;;;;;;;;;;108335;1269;45129;-38
2023/07/23 05:24:09;;;;;;;5.70;3.80;;;;;;;;;;108336;1267;40084;-37
2023/07/23 05:26:43;;;;;;;5.90;4.00;;;;;;;;;;108213;1266;175527;-38
2023/07/23 05:29:17;;;;;;;6.10;4.20;;;;;;;;;;108294;1266;42020;-38
2023/07/23 05:31:51;;;;;;;5.60;3.80;;;;;;;;;;108278;1256;46327;-38
2023/07/23 05:34:25;;;;;;;5.30;4.00;;;;;;;;;;108271;1261;40165;-38
2023/07/23 05:36:59;;;;;;;5.70;3.80;;;;;;;;;;108257;1264;42079;-38
2023/07/23 05:39:33;;;;;;;5.70;3.80;;;;;;;;;;108260;1261;42265;-37
2023/07/23 05:42:08;;;;;;;5.50;3.70;;;;;;;;;;108323;1269;46181;-35
2023/07/23 05:44:42;;;;;;;5.80;4.00;;;;;;;;;;108403;1257;39834;-35
2023/07/23 05:47:16;;;;;;;5.70;3.90;;;;;;;;;;108345;1264;42177;-35
2023/07/23 05:49:50;;;;;;;6.30;4.00;;;;;;;;;;108277;1256;41210;-35
2023/07/23 05:52:24;;;;;;;5.50;3.80;;;;;;;;;;108269;1271;46058;-38
2023/07/23 05:54:58;;;;;;;5.90;3.80;;;;;;;;;;108293;1262;40090;-38
2023/07/23 05:57:33;;;;;;;5.40;3.90;;;;;;;;;;108296;1258;43017;-39
2023/07/23 06:00:09;;;;;;;5.80;3.90;;;;;;;;;;108235;1266;41133;-39
2023/07/23 06:02:43;;;;;;;7.00;4.00;;;;;;;;;;108341;1257;47367;-38
2023/07/23 06:05:18;;;;;;;5.70;3.80;;;;;;;;;;108311;1273;40096;-39
2023/07/23 06:07:52;;;;;;;5.80;4.00;;;;;;;;;;108319;1260;41771;-38
2023/07/23 06:10:27;;;;;;;5.80;3.80;;;;;;;;;;108321;1259;41436;-38
2023/07/23 06:13:02;;;;;;;5.60;3.90;;;;;;;;;;108267;1261;45112;-38
2023/07/23 06:15:36;;;;;;;6.20;3.80;;;;;;;;;;108271;1268;40091;-38
2023/07/23 06:18:11;;;;;;;5.80;3.80;;;;;;;;;;108299;1269;41949;-38
2023/07/23 06:20:44;;;;;;;5.80;4.00;;;;;;;;;;108237;1269;41023;-38
2023/07/23 06:23:21;;;;;;;5.70;3.80;;;;;;;;;;108337;1269;44431;-38
2023/07/23 06:25:59;;;;;;;5.70;4.00;;;;;;;;;;108228;1266;175519;-38
2023/07/23 06:28:34;;;;;;;5.40;4.00;;;;;;;;;;108336;1266;42077;-37
2023/07/23 06:31:08;;;;;;;5.70;3.80;;;;;;;;;;108298;1257;41018;-38
2023/07/23 06:33:41;;;;;;;5.70;4.20;;;;;;;;;;108248;1272;38984;-38
2023/07/23 06:36:17;;;;;;;5.70;4.00;;;;;;;;;;108262;1270;40163;-38
2023/07/23 06:38:50;;;;;;;5.60;4.00;;;;;;;;;;108269;1272;42306;-39
2023/07/23 06:41:24;;;;;;;5.70;3.90;;;;;;;;;;108230;1257;41464;-38
2023/07/23 06:43:58;;;;;;;5.30;3.80;;;;;;;;;;108309;1269;39152;-38
2023/07/23 06:46:32;;;;;;;6.30;4.00;;;;;;;;;;108329;1259;40120;-39
2023/07/23 06:49:06;;;;;;;5.50;3.70;;;;;;;;;;108197;1260;175154;-37
2023/07/23 06:51:39;;;;;;;5.80;3.80;;;;;;;;;;108267;1259;42666;-39
2023/07/23 06:54:14;;;;;;;5.50;3.80;;;;;;;;;;108266;1260;40221;-39
2023/07/23 06:56:47;;;;;;;5.60;3.70;;;;;;;;;;108281;1261;40068;-39
2023/07/23 06:59:22;;;;;;;5.40;3.70;;;;;;;;;;108267;1262;42024;-38
2023/07/23 07:01:56;;;;;;;5.60;3.60;;;;;;;;;;108260;1255;41312;-37
2023/07/23 07:04:30;;;;;;;5.80;3.80;;;;;;;;;;108338;1260;38796;-38
2023/07/23 07:07:05;;;;;;;5.00;3.60;;;;;;;;;;108316;1257;41407;-38
2023/07/23 07:09:39;;;;;;;5.60;3.40;;;;;;;;;;108390;1257;42044;-39
2023/07/23 07:12:14;;;;;;;5.40;3.70;;;;;;;;;;108268;1257;41017;-38
2023/07/23 07:14:48;;;;;;;5.40;3.60;;;;;;;;;;108302;1268;38753;-38
2023/07/23 07:17:22;;;;;;;6.00;3.70;;;;;;;;;;108255;1261;40354;-38
2023/07/23 07:19:57;;;;;;;5.50;3.70;;;;;;;;;;108274;1269;42907;-38
2023/07/23 07:22:31;;;;;;;5.60;3.60;;;;;;;;;;108261;1272;41276;-38
2023/07/23 07:25:08;;;;;;;5.30;3.50;;;;;;;;;;108332;1267;38816;-38
2023/07/23 07:27:42;;;;;;;5.30;3.70;;;;;;;;;;108376;1264;40159;-39
2023/07/23 07:30:16;;;;;;;5.20;3.40;;;;;;;;;;108311;1266;42102;-39
2023/07/23 07:32:49;;;;;;;5.10;3.50;;;;;;;;;;108291;1258;42327;-39
2023/07/23 07:35:25;;;;;;;5.20;3.70;;;;;;;;;;108275;1260;38687;-38
2023/07/23 07:38:00;;;;;;;6.00;3.60;;;;;;;;;;108288;1261;41204;-38
2023/07/23 07:40:34;;;;;;;4.70;3.30;;;;;;;;;;108245;1271;42309;-38
2023/07/23 07:43:07;;;;;;;5.70;3.50;;;;;;;;;;108276;1261;40938;-37
2023/07/23 07:45:41;;;;;;;5.60;3.60;;;;;;;;;;108389;1269;40404;-38
2023/07/23 07:48:15;;;;;;;5.10;3.30;;;;;;;;;;108321;1257;40620;-37
2023/07/23 07:50:49;;;;;;;4.90;3.30;;;;;;;;;;108312;1273;42020;-37
2023/07/23 07:53:23;;;;;;;6.20;3.30;;;;;;;;;;108258;1257;43570;-38
2023/07/23 07:55:58;;;;;;;4.90;3.20;;;;;;;;;;108265;1259;38958;-38
2023/07/23 07:58:33;;;;;;;6.60;3.70;;;;;;;;;;108307;1258;40398;-38
2023/07/23 08:01:08;;;;;;;6.60;3.80;;;;;;;;;;108284;1268;42321;-38
2023/07/23 08:03:43;;;;;;;7.80;3.80;;;;;;;;;;108302;1259;41332;-38
2023/07/23 08:06:18;;;;;;;6.00;3.10;;;;;;;;;;108350;1270;40088;-38
2023/07/23 08:08:54;;;;;;;6.80;3.40;;;;;;;;;;108314;1269;41491;-38
2023/07/23 08:11:29;;;;;;;6.10;3.40;;;;;;;;;;108347;1266;42356;-39
2023/07/23 08:14:06;;;;;;;6.30;3.50;;;;;;;;;;108163;1260;177363;-38
2023/07/23 08:16:42;;;;;;;5.80;3.50;;;;;;;;;;108318;1272;40074;-38
2023/07/23 08:19:19;;;;;;;5.90;3.20;;;;;;;;;;108256;1268;40365;-38
2023/07/23 08:21:57;;;;;;;5.50;3.50;;;;;;;;;;108304;1260;43226;-38
2023/07/23 08:24:32;;;;;;;6.40;3.10;;;;;;;;;;108196;1260;175540;-38
2023/07/23 08:27:09;;;;;;;5.60;3.10;;;;;;;;;;108376;1271;40267;-38
2023/07/23 08:29:47;;;;;;;4.90;3.10;;;;;;;;;;108352;1261;41204;-38
2023/07/23 08:32:27;;;;;;;5.80;3.10;;;;;;;;;;108318;1267;43468;-38
2023/07/23 08:35:02;;;;;;;5.30;2.90;;;;;;;;;;108236;1270;40888;-39
2023/07/23 08:37:38;;;;;;;5.70;3.00;;;;;;;;;;108317;1259;40278;-38
2023/07/23 08:40:15;;;;;;;5.00;3.10;;;;;;;;;;108257;1261;39813;-38
2023/07/23 08:43:26;;;;;;;5.80;3.20;;;;;;;;;;108272;1272;42365;-38
2023/07/23 08:46:22;;;;;;;5.10;3.00;;;;;;;;;;108285;1262;47890;-38
2023/07/23 08:49:09;;;;;;;5.70;3.40;;;;;;;;;;108334;1269;38822;-37
2023/07/23 08:51:48;;;;;;;5.20;3.20;;;;;;;;;;108317;1260;39914;-38
2023/07/23 08:54:22;;;;;;;5.90;3.50;;;;;;;;;;108294;1257;41895;-38
2023/07/23 08:56:57;;;;;;;5.20;3.40;;;;;;;;;;108272;1262;40986;-38
2023/07/23 08:59:32;;;;;;;5.90;3.90;;;;;;;;;;108276;1257;38985;-38
2023/07/23 09:02:11;;;;;;;6.40;3.90;;;;;;;;;;108272;1272;40451;-37
2023/07/23 09:04:45;;;;;;;5.10;3.60;;;;;;;;;;108271;1258;42534;-38
2023/07/23 09:07:22;;;;;;;5.90;3.50;;;;;;;;;;108320;1272;40888;-38
2023/07/23 09:09:58;;;;;;;6.20;3.80;;;;;;;;;;108326;1269;38591;-38
2023/07/23 09:12:32;;;;;;;4.90;3.40;;;;;;;;;;108355;1273;39947;-38
2023/07/23 09:15:11;;;;;;;6.70;3.60;;;;;;;;;;108231;1256;41813;-37
2023/07/23 09:17:45;;;;;;;5.60;3.90;;;;;;;;;;108274;1273;40958;-37
2023/07/23 09:20:21;;;;;;;6.80;3.70;;;;;;;;;;108268;1261;38640;-37
2023/07/23 09:22:56;;;;;;;5.60;3.60;;;;;;;;;;108268;1272;40189;-37
2023/07/23 09:25:35;;;;;;;5.80;3.30;;;;;;;;;;108262;1258;43393;-37
2023/07/23 09:28:11;;;;;;;5.10;3.40;;;;;;;;;;108278;1271;40960;-37
2023/07/23 09:30:55;;;;;;;5.90;3.40;;;;;;;;;;108324;1273;38587;-37
2023/07/23 09:33:35;;;;;;;5.10;3.20;;;;;;;;;;108317;1261;40259;-38
2023/07/23 09:36:10;;;;;;;5.40;3.30;;;;;;;;;;108241;1272;42121;-38
2023/07/23 09:38:54;;;;;;;5.70;3.30;;;;;;;;;;108309;1261;41151;-38
2023/07/23 09:41:32;;;;;;;5.00;3.20;;;;;;;;;;108268;1262;38659;-38
2023/07/23 09:44:10;;;;;;;5.00;3.10;;;;;;;;;;108261;1272;39880;-38
2023/07/23 09:46:49;;;;;;;5.40;3.20;;;;;;;;;;108331;1257;42012;-38
2023/07/23 09:49:32;;;;;;;4.90;3.10;;;;;;;;;;108329;1273;42228;-38
2023/07/23 09:52:11;;;;;;;5.60;3.40;;;;;;;;;;108340;1271;38653;-38
2023/07/23 09:54:46;;;;;;;5.30;3.50;;;;;;;;;;108248;1261;177051;-38
2023/07/23 09:57:25;;;;;;;4.90;3.30;;;;;;;;;;108216;1261;41825;-37
2023/07/23 10:00:02;;;;;;;6.10;3.70;;;;;;;;;;108298;1261;40938;-37
2023/07/23 10:02:38;;;;;;;6.50;4.40;;;;;;;;;;108159;1259;175498;-37
2023/07/23 10:05:18;;;;;;;6.40;4.10;;;;;;;;;;108291;1262;39898;-37
2023/07/23 10:07:54;;;;;;;6.30;4.00;;;;;;;;;;108326;1264;49216;-37
2023/07/23 10:10:32;;;;;;;6.30;4.10;;;;;;;;;;108353;1270;41157;-37
2023/07/23 10:13:07;;;;;;;6.30;4.00;;;;;;;;;;108358;1256;38812;-37
2023/07/23 10:15:42;;;;;;;7.10;4.30;;;;;;;;;;108288;1262;40220;-37
2023/07/23 10:18:19;;;;;;;5.90;3.80;;;;;;;;;;108254;1272;41858;-37
2023/07/23 10:20:53;;;;;;;5.50;3.90;;;;;;;;;;108329;1262;41204;-37
2023/07/23 10:23:28;;;;;;;6.30;4.20;;;;;;;;;;108182;1269;175469;-37
2023/07/23 10:26:25;;;;;;;7.20;4.00;;;;;;;;;;108228;1263;40210;-37
2023/07/23 10:29:11;;;;;;;6.20;3.60;;;;;;;;;;108357;1269;43220;-37
2023/07/23 10:31:46;;;;;;;5.10;3.40;;;;;;;;;;108377;1269;40931;-37
2023/07/23 10:34:46;;;;;;;5.20;3.20;;;;;;;;;;108384;1257;39929;-38
2023/07/23 10:37:21;;;;;;;5.40;3.40;;;;;;;;;;108192;1260;40333;-38
2023/07/23 10:40:00;;;;;;;5.80;3.50;;;;;;;;;;108249;1273;43240;-37
2023/07/23 10:42:44;;;;;;;5.90;3.40;;;;;;;;;;108281;1272;40842;-38
2023/07/23 10:45:29;;;;;;;5.70;3.50;;;;;;;;;;108273;1261;40072;-39
2023/07/23 10:48:05;;;;;;;5.80;3.40;;;;;;;;;;108193;1266;175476;-38
2023/07/23 10:50:44;;;;;;;5.70;3.60;;;;;;;;;;108373;1270;42064;-38
2023/07/23 10:53:19;;;;;;;6.20;3.80;;;;;;;;;;108382;1271;40912;-39
2023/07/23 10:55:54;;;;;;;7.40;3.80;;;;;;;;;;108365;1270;38814;-38
2023/07/23 10:58:28;;;;;;;5.30;3.80;;;;;;;;;;108241;1269;39860;-37
2023/07/23 11:01:04;;;;;;;5.90;3.80;;;;;;;;;;108263;1260;42538;-37
2023/07/23 11:03:48;;;;;;;6.50;3.90;;;;;;;;;;108284;1272;40965;-37
2023/07/23 11:06:34;;;;;;;6.40;3.90;;;;;;;;;;108233;1265;38686;-38
2023/07/23 11:09:13;;;;;;;6.70;3.90;;;;;;;;;;108269;1260;45766;-37
2023/07/23 11:11:51;;;;;;;5.60;3.70;;;;;;;;;;108182;1270;176239;-38
2023/07/23 11:14:27;;;;;;;6.30;4.10;;;;;;;;;;108325;1260;40999;-37
2023/07/23 11:17:02;;;;;;;7.90;3.90;;;;;;;;;;108327;1260;38837;-38
2023/07/23 11:19:36;;;;;;;7.10;3.70;;;;;;;;;;108233;1271;45935;-38
2023/07/23 11:22:16;;;;;;;5.80;3.80;;;;;;;;;;108212;1270;41835;-38
2023/07/23 11:24:51;;;;;;;5.80;3.40;;;;;;;;;;108256;1262;41550;-38
2023/07/23 11:27:26;;;;;;;5.90;3.90;;;;;;;;;;108191;1256;38701;-38
2023/07/23 11:30:07;;;;;;;5.60;3.70;;;;;;;;;;108357;1272;40120;-38
2023/07/23 11:32:41;;;;;;;5.70;3.80;;;;;;;;;;108351;1261;41755;-37
2023/07/23 11:35:16;;;;;;;6.70;4.40;;;;;;;;;;108379;1260;41469;-38
2023/07/23 11:37:52;;;;;;;7.30;4.20;;;;;;;;;;108292;1257;38843;-37
2023/07/23 11:40:28;;;;;;;7.20;4.10;;;;;;;;;;108315;1261;40206;-37
2023/07/23 11:43:07;;;;;;;6.90;4.00;;;;;;;;;;108268;1268;42029;-37
2023/07/23 11:45:50;;;;;;;6.30;4.00;;;;;;;;;;108268;1264;41019;-38
2023/07/23 11:48:26;;;;;;;6.30;4.20;;;;;;;;;;108167;1256;124619;-37
2023/07/23 11:51:02;;;;;;;7.10;4.20;;;;;;;;;;108358;1260;42283;-37
2023/07/23 11:53:38;;;;;;;7.10;4.30;;;;;;;;;;107667;1272;895139;-37
2023/07/23 11:56:13;;;;;;;7.80;4.20;;;;;;;;;;108340;1259;41198;-37
2023/07/23 11:58:48;;;;;;;7.40;4.40;;;;;;;;;;108252;1261;38602;-37
2023/07/23 12:01:22;;;;;;;6.30;3.90;;;;;;;;;;108261;1261;40368;-37
2023/07/23 12:04:03;;;;;;;7.60;4.00;;;;;;;;;;108228;1264;41994;-36
2023/07/23 12:06:40;;;;;;;5.90;3.60;;;;;;;;;;108213;1261;41153;-35
2023/07/23 12:09:16;;;;;;;7.00;3.60;;;;;;;;;;108273;1259;38663;-36
2023/07/23 12:11:51;;;;;;;5.90;3.60;;;;;;;;;;108322;1260;39879;-35
2023/07/23 12:14:26;;;;;;;6.50;3.90;;;;;;;;;;108385;1267;42214;-35
2023/07/23 12:17:01;;;;;;;5.50;3.70;;;;;;;;;;108372;1273;40906;-35
2023/07/23 12:19:42;;;;;;;6.60;3.80;;;;;;;;;;108229;1261;38615;-35
2023/07/23 12:22:21;;;;;;;6.40;3.80;;;;;;;;;;108273;1269;39941;-36
2023/07/23 12:24:57;;;;;;;5.30;3.80;;;;;;;;;;108216;1260;41759;-35
2023/07/23 12:27:32;;;;;;;6.00;3.90;;;;;;;;;;108261;1272;43806;-35
2023/07/23 12:30:08;;;;;;;6.90;4.00;;;;;;;;;;108291;1260;38795;-35
2023/07/23 12:32:42;;;;;;;6.90;4.10;;;;;;;;;;108402;1272;39862;-35
2023/07/23 12:35:17;;;;;;;6.80;4.10;;;;;;;;;;108336;1268;42038;-35
2023/07/23 12:37:51;;;;;;;7.00;4.00;;;;;;;;;;108352;1269;40938;-37
2023/07/23 12:40:24;;;;;;;6.10;4.00;;;;;;;;;;108187;1260;38771;-37
2023/07/23 12:42:59;;;;;;;6.10;4.10;;;;;;;;;;108249;1272;40248;-37
2023/07/23 12:45:36;;;;;;;6.10;4.40;;;;;;;;;;108235;1263;43667;-37
2023/07/23 12:48:11;;;;;;;7.20;4.50;;;;;;;;;;108261;1272;40940;-37
2023/07/23 12:50:46;;;;;;;6.70;4.30;;;;;;;;;;108316;1256;39954;-37
2023/07/23 12:53:23;;;;;;;6.10;4.70;;;;;;;;;;108396;1266;40170;-37
2023/07/23 12:55:57;;;;;;;6.30;4.30;;;;;;;;;;108332;1257;43625;-37
2023/07/23 12:58:34;;;;;;;5.90;4.30;;;;;;;;;;108330;1272;42357;-37
2023/07/23 13:01:08;;;;;;;8.00;4.40;;;;;;;;;;108185;1257;38820;-37
2023/07/23 13:03:43;;;;;;;6.50;4.20;;;;;;;;;;108144;1273;40383;-37
2023/07/23 13:06:17;;;;;;;6.90;4.60;;;;;;;;;;108211;1272;42163;-38
2023/07/23 13:08:51;;;;;;;6.60;4.70;;;;;;;;;;108234;1263;41443;-38
2023/07/23 13:11:28;;;;;;;6.70;4.60;;;;;;;;;;108218;1257;175451;-37
2023/07/23 13:14:04;;;;;;;6.20;4.30;;;;;;;;;;108355;1271;39903;-38
2023/07/23 13:16:38;;;;;;;5.70;4.40;;;;;;;;;;108297;1271;41955;-38
2023/07/23 13:19:13;;;;;;;6.30;4.50;;;;;;;;;;108351;1260;41179;-37
2023/07/23 13:21:48;;;;;;;5.90;4.10;;;;;;;;;;108210;1262;38794;-38
2023/07/23 13:24:22;;;;;;;5.70;3.90;;;;;;;;;;108221;1270;39970;-38
2023/07/23 13:26:57;;;;;;;6.00;4.20;;;;;;;;;;108238;1269;42431;-38
2023/07/23 13:29:32;;;;;;;5.60;3.90;;;;;;;;;;108268;1270;41519;-38
2023/07/23 13:32:09;;;;;;;5.20;3.80;;;;;;;;;;108432;1261;44618;-37
2023/07/23 13:34:43;;;;;;;5.60;3.80;;;;;;;;;;108359;1273;40224;-37
2023/07/23 13:37:17;;;;;;;5.80;4.10;;;;;;;;;;108359;1268;42295;-37
2023/07/23 13:39:51;;;;;;;5.50;3.60;;;;;;;;;;108375;1260;42289;-37
2023/07/23 13:42:25;;;;;;;5.40;3.30;;;;;;;;;;108215;1260;45612;-37
2023/07/23 13:45:00;;;;;;;5.70;3.50;;;;;;;;;;108226;1273;39988;-37
2023/07/23 13:47:34;;;;;;;5.30;3.50;;;;;;;;;;108260;1258;41912;-37
2023/07/23 13:50:10;;;;;;;5.60;3.50;;;;;;;;;;108222;1257;41018;-37
2023/07/23 13:52:46;;;;;;;5.50;3.40;;;;;;;;;;108313;1261;44756;-37
2023/07/23 13:55:21;;;;;;;5.60;3.60;;;;;;;;;;108360;1260;40050;-37
2023/07/23 13:57:54;;;;;;;5.60;3.40;;;;;;;;;;108372;1260;42493;-38
2023/07/23 14:00:29;;;;;;;5.40;3.50;;;;;;;;;;108365;1257;40989;-38
2023/07/23 14:03:04;;;;;;;5.40;3.10;;;;;;;;;;108173;1261;45898;-38
2023/07/23 14:05:38;;;;;;;5.30;3.30;;;;;;;;;;108223;1268;40039;-38
2023/07/23 14:08:12;;;;;;;5.90;3.10;;;;;;;;;;108248;1260;41987;-38
2023/07/23 14:10:46;;;;;;;5.10;3.10;;;;;;;;;;108211;1260;41035;-37
2023/07/23 14:13:20;;;;;;;5.60;3.10;;;;;;;;;;108344;1259;44706;-37
2023/07/23 14:15:55;;;;;;;5.40;3.10;;;;;;;;;;108368;1273;39853;-37
2023/07/23 14:18:31;;;;;;;5.70;3.30;;;;;;;;;;108381;1263;42135;-37
2023/07/23 14:21:05;;;;;;;4.90;3.10;;;;;;;;;;108342;1271;40913;-37
2023/07/23 14:23:40;;;;;;;5.10;3.00;;;;;;;;;;108333;1256;47220;-37
2023/07/23 14:26:14;;;;;;;5.50;2.80;;;;;;;;;;108366;1259;41309;-37
2023/07/23 14:28:51;;;;;;;5.70;3.10;;;;;;;;;;108354;1260;42086;-38
2023/07/23 14:31:25;;;;;;;5.60;3.30;;;;;;;;;;108362;1267;41089;-37
2023/07/23 14:34:00;;;;;;;5.40;3.20;;;;;;;;;;108181;1268;44538;-38
2023/07/23 14:36:34;;;;;;;5.40;3.10;;;;;;;;;;108235;1272;40187;-37
2023/07/23 14:39:11;;;;;;;5.10;2.90;;;;;;;;;;108221;1264;41909;-36
2023/07/23 14:41:45;;;;;;;5.10;3.10;;;;;;;;;;108240;1272;40948;-36
2023/07/23 14:44:22;;;;;;;4.80;3.00;;;;;;;;;;108359;1259;43873;-36
2023/07/23 14:46:56;;;;;;;4.90;3.00;;;;;;;;;;108339;1256;40081;-36
2023/07/23 14:49:30;;;;;;;5.60;3.10;;;;;;;;;;108395;1260;42066;-36
2023/07/23 14:52:05;;;;;;;5.30;3.20;;;;;;;;;;108379;1272;40930;-36
2023/07/23 14:54:40;;;;;;;5.30;3.20;;;;;;;;;;108322;1260;45218;-36
2023/07/23 14:57:13;;;;;;;5.20;3.20;;;;;;;;;;108194;1267;39909;-36
2023/07/23 14:59:48;;;;;;;5.20;3.30;;;;;;;;;;108179;1270;43215;-36
2023/07/23 15:02:22;;;;;;;5.20;3.30;;;;;;;;;;108207;1260;41080;-36
2023/07/23 15:04:56;;;;;;;5.20;3.00;;;;;;;;;;108293;1259;44582;-35
2023/07/23 15:07:30;;;;;;;6.20;3.00;;;;;;;;;;108362;1267;41602;-36
2023/07/23 15:10:05;;;;;;;4.90;2.90;;;;;;;;;;108354;1272;42225;-36
2023/07/23 15:12:40;;;;;;;5.20;2.90;;;;;;;;;;108407;1260;42611;-36
2023/07/23 15:15:18;;;;;;;4.90;2.90;;;;;;;;;;108297;1260;44803;-36
2023/07/23 15:17:53;;;;;;;4.90;3.10;;;;;;;;;;108205;1272;40200;-36